createdAt,value
2018-07-02T04:09:58.557Z,1200
2018-07-02T04:10:24.059Z,1208
2018-07-02T04:10:49.541Z,1220
2018-07-02T04:11:15.031Z,1224
2018-07-02T04:11:40.504Z,1228
2018-07-02T04:12:06.032Z,1236
2018-07-02T04:12:31.524Z,1244
2018-07-02T04:12:57.071Z,1248
2018-07-02T04:13:22.526Z,1252
2018-07-02T04:13:47.998Z,1256
2018-07-02T04:14:13.525Z,1264
2018-07-02T04:14:38.988Z,1268
2018-07-02T04:15:04.489Z,1276
2018-07-02T04:15:29.993Z,1284
2018-07-02T04:15:55.499Z,1292
2018-07-02T04:16:20.988Z,1300
2018-07-02T04:16:46.491Z,1308
2018-07-02T04:17:11.973Z,1320
2018-07-02T04:17:37.467Z,1280
2018-07-02T04:18:02.939Z,1352
2018-07-02T04:18:28.471Z,1352
2018-07-02T04:18:53.947Z,1368
2018-07-02T04:19:19.460Z,1376
2018-07-02T04:19:44.956Z,1384
2018-07-02T04:20:10.424Z,1400
2018-07-02T04:20:35.941Z,1412
2018-07-02T04:21:01.399Z,1428
2018-07-02T04:21:26.891Z,1448
2018-07-02T04:21:52.378Z,1460
2018-07-02T04:22:17.878Z,1476
2018-07-02T04:22:43.399Z,1488
2018-07-02T04:23:08.860Z,1500
2018-07-02T04:23:34.383Z,1508
2018-07-02T04:23:59.875Z,1524
2018-07-02T04:24:25.362Z,1532
2018-07-02T04:24:50.828Z,1540
2018-07-02T04:25:16.291Z,1552
2018-07-02T04:25:41.772Z,1556
2018-07-02T04:26:07.253Z,1572
2018-07-02T04:26:32.728Z,1584
2018-07-02T04:26:58.268Z,1604
2018-07-02T04:27:23.781Z,1628
2018-07-02T04:27:49.261Z,1652
2018-07-02T04:28:14.743Z,1688
2018-07-02T04:28:40.271Z,1724
2018-07-02T04:29:05.761Z,1768
2018-07-02T04:29:31.277Z,1800
2018-07-02T04:29:56.746Z,1832
2018-07-02T04:30:22.246Z,1888
2018-07-02T04:30:47.758Z,1924
2018-07-02T04:31:13.292Z,1964
2018-07-02T04:31:38.744Z,2004
2018-07-02T04:32:04.276Z,2044
2018-07-02T04:32:29.789Z,2080
2018-07-02T04:32:55.277Z,2120
2018-07-02T04:33:20.774Z,2156
2018-07-02T04:33:46.337Z,2204
2018-07-02T04:34:11.847Z,2240
2018-07-02T04:34:37.306Z,2288
2018-07-02T04:35:02.820Z,2320
2018-07-02T04:35:28.311Z,2372
2018-07-02T04:35:53.827Z,2412
2018-07-02T04:36:19.303Z,2452
2018-07-02T04:36:44.769Z,2496
2018-07-02T04:37:10.313Z,2528
2018-07-02T04:37:35.814Z,2564
2018-07-02T04:38:01.296Z,2596
2018-07-02T04:38:26.767Z,2640
2018-07-02T04:38:52.294Z,2668
2018-07-02T04:39:17.786Z,2704
2018-07-02T04:39:43.296Z,2736
2018-07-02T04:40:08.757Z,2784
2018-07-02T04:40:34.257Z,2824
2018-07-02T04:40:59.751Z,2856
2018-07-02T04:41:25.268Z,2892
2018-07-02T04:41:50.765Z,2920
2018-07-02T04:42:16.244Z,2956
2018-07-02T04:42:41.797Z,2980
2018-07-02T04:43:07.254Z,3012
2018-07-02T04:43:32.719Z,3048
2018-07-02T04:43:58.248Z,3068
2018-07-02T04:44:23.712Z,3092
2018-07-02T04:44:49.200Z,3116
2018-07-02T04:45:14.718Z,3140
2018-07-02T04:45:40.170Z,3152
2018-07-02T04:46:05.640Z,3876
2018-07-02T04:46:31.146Z,4060
2018-07-02T04:46:56.660Z,4092
2018-07-02T04:47:22.140Z,4124
2018-07-02T04:47:47.629Z,4156
2018-07-02T04:48:13.117Z,4184
2018-07-02T04:48:38.598Z,4212
2018-07-02T04:49:04.095Z,4248
2018-07-02T04:49:29.593Z,4272
2018-07-02T04:49:55.068Z,4304
2018-07-02T04:50:20.543Z,4332
2018-07-02T04:50:46.021Z,4360
2018-07-02T04:51:11.526Z,4388
2018-07-02T04:51:37.022Z,4416
2018-07-02T04:52:02.516Z,4440
2018-07-02T04:52:28.003Z,4472
2018-07-02T04:52:53.467Z,4500
2018-07-02T04:53:18.972Z,4528
2018-07-02T04:53:44.464Z,4548
2018-07-02T04:54:09.948Z,4568
2018-07-02T04:54:35.449Z,4604
2018-07-02T04:55:00.972Z,4632
2018-07-02T04:55:26.459Z,4644
2018-07-02T04:55:51.932Z,4668
2018-07-02T04:56:17.402Z,4692
2018-07-02T04:56:42.887Z,4720
2018-07-02T04:57:08.376Z,4744
2018-07-02T04:57:33.859Z,4760
2018-07-02T04:57:59.351Z,4780
2018-07-02T04:58:24.809Z,4808
2018-07-02T04:58:50.280Z,4824
2018-07-02T04:59:15.767Z,4852
2018-07-02T04:59:41.275Z,4876
2018-07-02T05:00:06.733Z,4900
2018-07-02T05:00:32.561Z,4916
2018-07-02T05:00:58.222Z,4944
2018-07-02T05:01:24.095Z,4964
2018-07-02T05:01:49.473Z,4988
2018-07-02T05:02:14.941Z,5028
2018-07-02T05:02:40.441Z,5068
2018-07-02T05:03:05.914Z,5108
2018-07-02T05:03:31.460Z,5148
2018-07-02T05:03:56.924Z,5188
2018-07-02T05:04:22.442Z,5224
2018-07-02T05:04:47.947Z,5240
2018-07-02T05:05:13.462Z,5252
2018-07-02T05:05:38.968Z,5256
2018-07-02T05:06:04.444Z,5272
2018-07-02T05:06:29.945Z,5276
2018-07-02T05:06:55.487Z,5284
2018-07-02T05:07:20.993Z,5284
2018-07-02T05:07:46.525Z,5292
2018-07-02T05:08:12.010Z,5296
2018-07-02T05:08:37.488Z,5296
2018-07-02T05:09:03.019Z,5292
2018-07-02T05:09:28.525Z,5304
2018-07-02T05:09:54.016Z,5312
2018-07-02T05:10:19.557Z,5332
2018-07-02T05:10:45.096Z,5344
2018-07-02T05:11:10.603Z,5364
2018-07-02T05:11:36.126Z,5376
2018-07-02T05:12:01.619Z,5400
2018-07-02T05:12:27.088Z,5416
2018-07-02T05:12:52.582Z,5436
2018-07-02T05:13:18.060Z,5452
2018-07-02T05:13:43.574Z,5472
2018-07-02T05:14:09.052Z,5480
2018-07-02T05:14:34.538Z,5492
2018-07-02T05:15:00.046Z,5508
2018-07-02T05:15:25.515Z,5516
2018-07-02T05:15:51.003Z,5524
2018-07-02T05:16:16.485Z,5544
2018-07-02T05:16:42.002Z,5556
2018-07-02T05:17:07.736Z,5568
2018-07-02T05:17:33.011Z,5592
2018-07-02T05:17:58.473Z,5608
2018-07-02T05:18:24.036Z,5636
2018-07-02T05:18:49.514Z,5652
2018-07-02T05:19:14.984Z,5668
2018-07-02T05:20:18.127Z,5704
2018-07-02T05:20:43.639Z,5720
2018-07-02T05:21:09.137Z,5736
2018-07-02T05:21:34.660Z,5752
2018-07-02T05:22:00.163Z,5776
2018-07-02T05:22:25.675Z,5788
2018-07-02T05:23:34.119Z,5824
2018-07-02T05:23:59.414Z,5840
2018-07-02T05:24:24.891Z,5836
2018-07-02T05:24:50.381Z,5848
2018-07-02T05:25:15.883Z,5856
2018-07-02T05:25:41.357Z,5868
2018-07-02T05:26:06.855Z,5884
2018-07-02T05:26:32.332Z,5904
2018-07-02T05:26:57.820Z,5912
2018-07-02T05:27:23.328Z,5928
2018-07-02T05:27:48.806Z,5952
2018-07-02T05:28:14.289Z,5972
2018-07-02T05:28:39.769Z,5984
2018-07-02T05:29:05.274Z,6000
2018-07-02T05:29:30.747Z,6028
2018-07-02T05:29:56.268Z,6040
2018-07-02T05:30:21.739Z,6068
2018-07-02T05:30:47.221Z,6076
2018-07-02T05:31:12.739Z,6096
2018-07-02T05:31:38.240Z,6136
2018-07-02T05:32:03.708Z,6196
2018-07-02T05:32:29.199Z,6260
2018-07-02T05:32:54.716Z,6340
2018-07-02T05:33:20.215Z,6444
2018-07-02T05:33:45.692Z,6528
2018-07-02T05:34:11.165Z,6600
2018-07-02T05:35:14.303Z,6672
2018-07-02T05:35:39.801Z,6640
2018-07-02T05:36:05.292Z,6616
2018-07-02T05:36:30.787Z,6616
2018-07-02T05:36:56.276Z,6620
2018-07-02T05:37:21.774Z,6660
2018-07-02T05:37:47.256Z,6720
2018-07-02T05:38:12.766Z,6776
2018-07-02T05:38:38.237Z,6836
2018-07-02T05:39:03.732Z,6856
2018-07-02T05:39:29.220Z,6868
2018-07-02T05:39:54.701Z,6848
2018-07-02T05:40:20.207Z,6820
2018-07-02T05:40:45.725Z,6828
2018-07-02T05:41:11.249Z,6820
2018-07-02T05:41:36.791Z,6848
2018-07-02T05:42:02.254Z,6840
2018-07-02T05:42:27.739Z,6840
2018-07-02T05:42:53.286Z,6832
2018-07-02T05:43:18.816Z,6816
2018-07-02T05:43:44.347Z,6820
2018-07-02T05:44:09.804Z,6816
2018-07-02T05:44:35.422Z,6792
2018-07-02T05:45:00.900Z,6784
2018-07-02T05:45:26.406Z,6784
2018-07-02T05:45:51.895Z,6768
2018-07-02T05:46:17.417Z,6760
2018-07-02T05:46:42.935Z,6768
2018-07-02T05:47:08.469Z,6796
2018-07-02T05:47:33.981Z,6848
2018-07-02T05:47:59.479Z,6924
2018-07-02T05:48:25.003Z,7020
2018-07-02T05:48:50.512Z,7092
2018-07-02T05:49:15.999Z,7160
2018-07-02T05:49:41.521Z,7240
2018-07-02T05:50:07.017Z,7288
2018-07-02T05:50:32.508Z,7320
2018-07-02T05:50:57.995Z,7328
2018-07-02T05:51:23.481Z,7324
2018-07-02T05:51:49.016Z,7328
2018-07-02T05:52:14.492Z,7316
2018-07-02T05:52:39.971Z,7316
2018-07-02T05:53:05.480Z,7316
2018-07-02T05:53:30.982Z,7364
2018-07-02T05:53:56.468Z,7380
2018-07-02T05:54:21.995Z,7432
2018-07-02T05:54:47.535Z,7472
2018-07-02T05:55:12.960Z,7492
2018-07-02T05:55:38.474Z,7500
2018-07-02T05:56:03.949Z,7544
2018-07-02T05:56:29.469Z,7604
2018-07-02T05:56:54.967Z,7696
2018-07-02T05:57:20.486Z,7820
2018-07-02T05:57:45.969Z,8028
2018-07-02T05:58:11.472Z,8292
2018-07-02T05:58:36.983Z,8620
2018-07-02T05:59:02.485Z,8932
2018-07-02T05:59:27.999Z,9236
2018-07-02T05:59:53.511Z,9480
2018-07-02T06:00:19.158Z,9712
2018-07-02T06:00:44.536Z,9844
2018-07-02T06:01:09.956Z,10016
2018-07-02T06:01:35.463Z,10180
2018-07-02T06:02:01.210Z,10428
2018-07-02T06:02:26.521Z,10608
2018-07-02T06:02:52.007Z,10728
2018-07-02T06:03:17.516Z,10896
2018-07-02T06:03:42.977Z,10984
2018-07-02T06:04:08.490Z,11068
2018-07-02T06:04:34.008Z,11120
2018-07-02T06:04:59.515Z,11136
2018-07-02T06:05:25.012Z,11148
2018-07-02T06:05:50.510Z,11220
2018-07-02T08:38:37.693Z,10724
2018-07-02T08:39:03.180Z,10592
2018-07-02T08:39:28.686Z,10440
2018-07-02T08:39:54.156Z,10216
2018-07-02T08:40:19.653Z,9848
2018-07-02T08:40:45.279Z,9436
2018-07-02T08:41:10.696Z,8932
2018-07-02T08:41:36.182Z,8316
2018-07-02T08:42:01.658Z,7764
2018-07-02T08:42:27.178Z,7196
2018-07-02T08:42:52.681Z,6676
2018-07-02T08:43:18.176Z,6248
2018-07-02T08:43:43.671Z,5856
2018-07-02T08:44:09.206Z,5584
2018-07-02T08:44:34.709Z,5360
2018-07-02T08:45:00.159Z,5164
2018-07-02T08:45:25.658Z,5008
2018-07-02T08:45:51.174Z,4868
2018-07-02T08:46:16.689Z,4752
2018-07-02T08:46:42.238Z,4652
2018-07-02T08:47:07.692Z,4556
2018-07-02T08:47:33.188Z,4480
2018-07-02T08:47:58.731Z,4396
2018-07-02T08:48:24.241Z,4328
2018-07-02T08:48:49.728Z,4268
2018-07-02T08:49:15.222Z,4228
2018-07-02T08:49:40.743Z,4188
2018-07-02T08:50:06.199Z,4152
2018-07-02T08:50:31.713Z,4112
2018-07-02T08:50:57.197Z,4064
2018-07-02T08:51:22.674Z,4032
2018-07-02T08:51:48.200Z,3984
2018-07-02T08:52:13.699Z,3948
2018-07-02T08:52:39.225Z,3900
2018-07-02T08:53:04.687Z,3860
2018-07-02T08:53:30.178Z,3824
2018-07-02T08:53:55.669Z,3784
2018-07-02T08:54:21.177Z,3740
2018-07-02T08:54:46.684Z,3692
2018-07-02T08:55:12.184Z,3648
2018-07-02T08:55:37.669Z,3608
2018-07-02T08:56:03.156Z,3580
2018-07-02T08:56:28.687Z,3556
2018-07-02T08:56:54.168Z,3536
2018-07-02T08:57:20.025Z,3520
2018-07-02T08:57:45.523Z,3504
2018-07-02T08:58:11.034Z,3492
2018-07-02T08:58:36.563Z,3480
2018-07-02T08:59:02.051Z,3468
2018-07-02T08:59:27.557Z,3460
2018-07-02T08:59:53.037Z,3452
2018-07-02T09:00:18.515Z,3444
2018-07-02T09:00:44.017Z,3444
2018-07-02T09:01:09.516Z,3436
2018-07-02T09:01:35.038Z,3436
2018-07-02T09:02:00.508Z,3424
2018-07-02T09:02:25.987Z,3416
2018-07-02T09:02:51.497Z,3412
2018-07-02T09:03:17.041Z,3412
2018-07-02T09:03:42.569Z,3400
2018-07-02T09:04:08.034Z,3400
2018-07-02T09:04:33.551Z,3396
2018-07-02T09:04:59.049Z,3388
2018-07-02T09:05:24.568Z,3384
2018-07-02T09:05:50.027Z,3376
2018-07-02T09:06:15.523Z,3376
2018-07-02T09:06:41.039Z,3368
2018-07-02T09:07:06.563Z,3372
2018-07-02T09:07:32.068Z,3368
2018-07-02T09:07:57.581Z,3364
2018-07-02T09:08:23.199Z,3352
2018-07-02T09:08:48.707Z,3356
2018-07-02T09:09:14.750Z,3348
2018-07-02T09:09:40.096Z,3340
2018-07-02T09:10:05.588Z,3336
2018-07-02T09:10:31.072Z,3320
2018-07-02T09:10:56.573Z,3324
2018-07-02T09:11:22.041Z,3320
2018-07-02T09:11:47.563Z,3316
2018-07-02T09:12:13.076Z,3316
2018-07-02T09:12:38.591Z,3308
2018-07-02T09:13:04.095Z,3304
2018-07-02T09:13:29.525Z,3300
2018-07-02T09:13:55.060Z,3300
2018-07-02T09:14:20.561Z,3300
2018-07-02T09:14:46.143Z,3292
2018-07-02T09:15:11.592Z,3284
2018-07-02T09:15:37.065Z,3276
2018-07-02T09:16:02.565Z,3276
2018-07-02T09:16:28.134Z,3268
2018-07-02T09:16:53.605Z,3260
2018-07-02T09:17:19.084Z,3256
2018-07-02T09:17:44.573Z,3252
2018-07-02T09:18:10.067Z,3252
2018-07-02T09:18:35.584Z,3244
2018-07-02T09:19:54.683Z,3228
2018-07-02T09:20:20.183Z,3232
2018-07-02T09:20:45.684Z,3228
2018-07-02T09:21:11.173Z,3224
2018-07-02T09:21:36.675Z,3216
2018-07-02T09:22:02.153Z,3204
2018-07-02T09:22:27.675Z,3192
2018-07-02T09:22:53.146Z,3188
2018-07-02T09:23:18.680Z,3184
2018-07-02T09:23:44.213Z,3184
2018-07-02T09:24:09.976Z,3180
2018-07-02T09:24:35.463Z,3176
2018-07-02T09:25:01.052Z,3168
2018-07-02T09:25:26.576Z,3168
2018-07-02T09:25:52.092Z,3160
2018-07-02T09:26:17.754Z,3152
2018-07-02T09:26:43.104Z,3148
2018-07-02T09:27:08.689Z,3136
2018-07-02T09:27:34.186Z,3132
2018-07-02T09:27:59.668Z,3128
2018-07-02T09:28:25.171Z,3124
2018-07-02T09:28:50.736Z,3116
2018-07-02T09:29:16.251Z,3108
2018-07-02T09:29:41.726Z,3100
2018-07-02T09:30:07.200Z,3096
2018-07-02T09:30:32.813Z,3088
2018-07-02T09:31:46.198Z,3076
2018-07-02T09:32:11.766Z,3076
2018-07-02T09:32:37.252Z,3068
2018-07-02T09:33:02.935Z,3064
2018-07-02T09:33:28.197Z,3068
2018-07-02T09:33:53.688Z,3060
2018-07-02T09:34:19.218Z,3056
2018-07-02T09:34:44.737Z,3052
2018-07-02T09:35:10.247Z,3052
2018-07-02T09:35:35.738Z,3052
2018-07-02T09:36:01.247Z,3052
2018-07-02T09:36:26.729Z,3044
2018-07-02T09:36:52.229Z,3044
2018-07-02T09:37:17.714Z,3040
2018-07-02T09:37:43.218Z,3040
2018-07-02T09:38:08.719Z,3032
2018-07-02T09:38:34.207Z,3028
2018-07-02T09:38:59.782Z,3028
2018-07-02T09:39:25.268Z,3016
2018-07-02T09:39:50.664Z,3016
2018-07-02T09:40:16.158Z,3012
2018-07-02T09:40:41.619Z,3008
2018-07-02T09:41:07.087Z,3004
2018-07-02T09:41:32.569Z,3000
2018-07-02T09:41:58.060Z,2996
2018-07-02T09:42:23.550Z,2996
2018-07-02T09:42:49.083Z,2992
2018-07-02T09:43:14.528Z,2984
2018-07-02T09:43:40.101Z,2984
2018-07-02T09:44:05.589Z,2976
2018-07-02T09:44:31.171Z,2980
2018-07-02T09:44:56.672Z,2976
2018-07-02T09:45:22.161Z,2976
2018-07-02T09:45:47.686Z,2964
2018-07-02T09:46:13.220Z,2960
2018-07-02T09:46:38.819Z,2956
2018-07-02T09:47:04.293Z,2948
2018-07-02T09:47:29.820Z,2948
2018-07-02T09:47:55.369Z,2944
2018-07-02T09:48:20.917Z,2940
2018-07-02T09:48:46.468Z,2936
2018-07-02T09:49:12.036Z,2932
2018-07-02T09:49:37.580Z,2928
2018-07-02T09:50:03.244Z,2920
2018-07-02T09:50:28.823Z,2912
2018-07-02T09:50:54.277Z,2912
2018-07-02T09:51:19.813Z,2904
2018-07-02T09:51:45.335Z,2900
2018-07-02T09:52:10.873Z,2896
2018-07-02T09:52:36.369Z,2892
2018-07-02T09:53:01.887Z,2888
2018-07-02T09:53:27.392Z,2884
2018-07-02T09:53:52.943Z,2880
2018-07-02T09:54:18.452Z,2828
2018-07-02T09:54:43.928Z,2824
2018-07-02T09:55:09.415Z,2812
2018-07-02T09:55:34.957Z,2828
2018-07-02T09:56:00.454Z,2848
2018-07-02T09:56:25.948Z,2856
2018-07-02T09:56:51.445Z,2856
2018-07-02T09:57:17.034Z,2852
2018-07-02T09:57:42.587Z,2848
2018-07-02T09:58:08.095Z,2848
2018-07-02T09:58:33.665Z,2844
2018-07-02T09:58:59.143Z,2836
2018-07-02T09:59:24.661Z,2844
2018-07-02T09:59:50.160Z,2836
2018-07-02T10:00:15.692Z,2832
2018-07-02T10:00:41.230Z,2832
2018-07-02T10:01:06.767Z,2824
2018-07-02T10:01:32.233Z,2820
2018-07-02T10:01:57.738Z,2816
2018-07-02T10:02:23.181Z,2812
2018-07-02T10:02:48.782Z,2808
2018-07-02T10:03:14.227Z,2804
2018-07-02T10:03:39.730Z,2796
2018-07-02T10:04:05.269Z,2792
2018-07-02T10:04:30.777Z,2784
2018-07-02T10:04:56.308Z,2784
2018-07-02T10:05:21.809Z,2776
2018-07-02T10:05:47.293Z,2776
2018-07-02T10:06:12.805Z,2768
2018-07-02T10:06:38.376Z,2764
2018-07-02T10:07:03.901Z,2768
2018-07-02T10:07:29.369Z,2764
2018-07-02T10:07:54.901Z,2760
2018-07-02T10:08:20.411Z,2764
2018-07-02T10:08:45.895Z,2756
2018-07-02T10:09:11.396Z,2756
2018-07-02T10:09:36.948Z,2752
2018-07-02T10:10:02.463Z,2752
2018-07-02T10:10:27.942Z,2756
2018-07-02T10:10:53.440Z,2744
2018-07-02T10:11:18.970Z,2744
2018-07-02T10:11:44.507Z,2748
2018-07-02T10:12:09.989Z,2740
2018-07-02T10:12:35.528Z,2740
2018-07-02T10:13:00.980Z,2736
2018-07-02T10:13:26.504Z,2736
2018-07-02T10:13:52.024Z,2728
2018-07-02T10:14:17.507Z,2728
2018-07-02T10:14:42.997Z,2724
2018-07-02T10:16:06.620Z,2724
2018-07-02T10:16:32.117Z,2724
2018-07-02T10:16:57.607Z,2720
2018-07-02T10:17:23.145Z,2712
2018-07-02T10:17:48.622Z,2712
2018-07-02T10:18:14.161Z,2708
2018-07-02T10:18:39.709Z,2704
2018-07-02T10:19:05.183Z,2700
2018-07-02T10:20:23.724Z,2688
2018-07-02T10:20:49.132Z,2680
2018-07-02T10:21:14.607Z,2676
2018-07-02T10:21:40.122Z,2676
2018-07-02T10:22:05.642Z,2672
2018-07-02T10:22:31.144Z,2672
2018-07-02T10:22:56.641Z,2664
2018-07-02T10:23:22.213Z,2664
2018-07-02T10:23:47.859Z,2660
2018-07-02T10:24:13.321Z,2656
2018-07-02T10:24:38.855Z,2648
2018-07-02T10:25:04.392Z,2644
2018-07-02T10:25:29.864Z,2636
2018-07-02T10:25:55.426Z,2628
2018-07-02T10:26:20.935Z,2628
2018-07-02T10:26:46.458Z,2624
2018-07-02T10:27:11.996Z,2620
2018-07-02T10:27:37.524Z,2612
2018-07-02T10:28:03.078Z,2608
2018-07-02T10:28:28.616Z,2600
2018-07-02T10:28:54.116Z,2588
2018-07-02T10:29:19.646Z,2588
2018-07-02T10:29:45.146Z,2576
2018-07-02T10:30:10.746Z,2572
2018-07-02T10:30:36.222Z,2572
2018-07-02T10:31:01.764Z,2560
2018-07-02T10:31:27.422Z,2556
2018-07-02T10:31:52.790Z,2552
2018-07-02T10:32:18.351Z,2544
2018-07-02T10:32:43.902Z,2540
2018-07-02T10:33:09.388Z,2532
2018-07-02T10:33:34.863Z,2524
2018-07-02T10:34:38.995Z,2512
2018-07-02T10:35:04.498Z,2508
2018-07-02T10:35:30.015Z,2508
2018-07-02T10:35:55.499Z,2496
2018-07-02T10:36:20.981Z,2500
2018-07-02T10:36:46.510Z,2500
2018-07-02T10:37:12.110Z,2496
2018-07-02T10:37:37.615Z,2500
2018-07-02T10:38:03.111Z,2492
2018-07-02T10:38:28.599Z,2488
2018-07-02T10:38:54.087Z,2484
2018-07-02T10:39:19.636Z,2480
2018-07-02T10:39:45.108Z,2480
2018-07-02T10:40:10.679Z,2472
2018-07-02T10:40:36.179Z,2464
2018-07-02T10:41:01.683Z,2464
2018-07-02T10:41:27.207Z,2464
2018-07-02T10:41:52.748Z,2464
2018-07-02T10:42:18.332Z,2460
2018-07-02T10:42:43.837Z,2456
2018-07-02T10:44:07.401Z,2452
2018-07-02T10:44:32.935Z,2444
2018-07-02T10:44:58.453Z,2440
2018-07-02T10:45:23.940Z,2440
2018-07-02T10:45:49.457Z,2440
2018-07-02T10:46:14.972Z,2448
2018-07-02T10:46:40.503Z,2448
2018-07-02T10:47:06.092Z,2444
2018-07-02T10:47:31.632Z,2448
2018-07-02T10:47:57.114Z,2448
2018-07-02T10:48:22.612Z,2440
2018-07-02T10:48:48.102Z,2436
2018-07-02T10:49:13.666Z,2432
2018-07-02T10:50:21.933Z,2416
2018-07-02T10:50:47.408Z,2408
2018-07-02T10:51:12.883Z,2404
2018-07-02T10:51:38.373Z,2396
2018-07-02T10:52:03.916Z,2388
2018-07-02T10:52:29.417Z,2380
2018-07-02T10:52:54.971Z,2380
2018-07-02T10:53:20.491Z,2372
2018-07-02T10:53:45.972Z,2368
2018-07-02T10:54:11.542Z,2372
2018-07-02T10:54:37.222Z,2372
2018-07-02T10:55:02.731Z,2372
2018-07-02T10:55:28.280Z,2368
2018-07-02T10:55:53.901Z,2368
2018-07-02T10:56:19.400Z,2364
2018-07-02T10:56:44.905Z,2364
2018-07-02T10:57:10.467Z,2360
2018-07-02T10:57:36.066Z,2364
2018-07-02T10:58:01.642Z,2360
2018-07-02T10:58:27.205Z,2352
2018-07-02T10:58:52.914Z,2352
2018-07-02T10:59:18.468Z,2348
2018-07-02T10:59:44.057Z,2348
2018-07-02T11:00:09.589Z,2344
2018-07-02T11:01:23.428Z,2352
2018-07-02T11:01:49.034Z,2356
2018-07-02T11:02:14.550Z,2360
2018-07-02T11:02:40.140Z,2360
2018-07-02T11:03:05.802Z,2352
2018-07-02T11:03:31.401Z,2352
2018-07-02T11:03:56.904Z,2344
2018-07-02T11:04:22.412Z,2340
2018-07-02T11:04:48.004Z,2332
2018-07-02T11:05:13.624Z,2332
2018-07-02T11:05:39.189Z,2324
2018-07-02T11:06:04.745Z,2324
2018-07-02T11:06:30.402Z,2320
2018-07-02T11:06:56.013Z,2320
2018-07-02T11:07:21.507Z,2312
2018-07-02T11:07:47.072Z,2312
2018-07-02T11:08:12.554Z,2316
2018-07-02T11:08:38.169Z,2312
2018-07-02T11:09:03.715Z,2312
2018-07-02T11:09:29.401Z,2312
2018-07-02T11:09:54.963Z,2316
2018-07-02T11:10:20.486Z,2320
2018-07-02T11:10:46.047Z,2320
2018-07-02T11:11:11.667Z,2324
2018-07-02T11:11:37.182Z,2324
2018-07-02T11:12:02.764Z,2320
2018-07-02T11:12:28.286Z,2324
2018-07-02T11:12:53.904Z,2324
2018-07-02T11:13:19.465Z,2316
2018-07-02T11:13:45.074Z,2312
2018-07-02T11:14:10.484Z,2316
2018-07-02T11:14:36.057Z,2312
2018-07-02T11:15:01.687Z,2308
2018-07-02T11:15:27.204Z,2304
2018-07-02T11:15:52.689Z,2304
2018-07-02T11:16:18.321Z,2300
2018-07-02T11:16:43.755Z,2296
2018-07-02T11:17:09.333Z,2292
2018-07-02T11:17:34.851Z,2296
2018-07-02T11:18:00.444Z,2292
2018-07-02T11:18:25.982Z,2292
2018-07-02T11:18:51.664Z,2296
2018-07-02T11:19:17.086Z,2292
2018-07-02T11:19:42.728Z,2292
2018-07-02T11:20:08.241Z,2296
2018-07-02T11:20:33.769Z,2292
2018-07-02T11:20:59.279Z,2288
2018-07-02T11:21:24.754Z,2284
2018-07-02T11:21:50.415Z,2284
2018-07-02T11:22:15.898Z,2280
2018-07-02T11:22:41.382Z,2284
2018-07-02T11:23:06.869Z,2284
2018-07-02T11:23:32.431Z,2288
2018-07-02T11:23:57.929Z,2288
2018-07-02T11:24:23.523Z,2288
2018-07-02T11:24:49.058Z,2288
2018-07-02T11:25:14.504Z,2284
2018-07-02T11:25:40.140Z,2280
2018-07-02T11:26:05.695Z,2288
2018-07-02T11:26:31.194Z,2284
2018-07-02T11:26:56.750Z,2284
2018-07-02T11:27:22.319Z,2280
2018-07-02T11:27:47.817Z,2284
2018-07-02T11:28:13.339Z,2284
2018-07-02T11:28:38.827Z,2288
2018-07-02T11:29:04.377Z,2300
2018-07-02T11:29:29.952Z,2292
2018-07-02T11:29:55.507Z,2296
2018-07-02T11:30:20.961Z,2284
2018-07-02T11:30:46.530Z,2280
2018-07-02T11:31:12.080Z,2280
2018-07-02T11:31:37.547Z,2276
2018-07-02T11:32:03.119Z,2276
2018-07-02T11:32:29.458Z,2276
2018-07-02T11:32:55.052Z,2276
2018-07-02T11:33:20.614Z,2276
2018-07-02T11:33:46.140Z,2280
2018-07-02T11:34:11.720Z,2276
2018-07-02T11:34:37.289Z,2272
2018-07-02T11:35:02.924Z,2280
2018-07-02T11:35:28.432Z,2280
2018-07-02T11:35:54.034Z,2284
2018-07-02T11:36:19.631Z,2284
2018-07-02T11:36:45.249Z,2284
2018-07-02T11:37:10.773Z,2288
2018-07-02T11:37:36.337Z,2288
2018-07-02T11:38:01.909Z,2288
2018-07-02T11:38:27.346Z,2284
2018-07-02T11:38:52.938Z,2276
2018-07-02T11:39:18.450Z,2284
2018-07-02T11:39:44.067Z,2280
2018-07-02T11:40:09.621Z,2276
2018-07-02T11:41:13.320Z,2276
2018-07-02T11:41:38.845Z,2268
2018-07-02T11:42:04.336Z,2268
2018-07-02T11:42:29.929Z,2264
2018-07-02T11:42:55.455Z,2264
2018-07-02T11:43:20.991Z,2268
2018-07-02T11:43:46.611Z,2264
2018-07-02T11:44:12.343Z,2260
2018-07-02T11:44:37.804Z,2260
2018-07-02T11:45:03.298Z,2260
2018-07-02T11:45:28.895Z,2260
2018-07-02T11:45:54.433Z,2264
2018-07-02T11:46:19.926Z,2264
2018-07-02T11:46:45.441Z,2264
2018-07-02T11:47:10.902Z,2268
2018-07-02T11:47:36.393Z,2264
2018-07-02T11:48:01.974Z,2272
2018-07-02T11:48:27.513Z,2268
2018-07-02T11:48:53.071Z,2272
2018-07-02T11:49:56.207Z,2280
2018-07-02T11:50:21.706Z,2280
2018-07-02T11:50:47.198Z,2276
2018-07-02T11:51:12.691Z,2288
2018-07-02T11:51:38.190Z,2296
2018-07-02T11:52:03.775Z,2296
2018-07-02T11:52:29.264Z,2296
2018-07-02T11:52:54.780Z,2296
2018-07-02T11:53:20.302Z,2288
2018-07-02T11:53:45.837Z,2280
2018-07-02T11:54:11.385Z,2284
2018-07-02T11:54:36.891Z,2288
2018-07-02T11:55:02.428Z,2288
2018-07-02T11:55:27.881Z,2288
2018-07-02T11:55:53.349Z,2292
2018-07-02T11:56:18.839Z,2288
2018-07-02T11:56:44.350Z,2288
2018-07-02T11:57:09.874Z,2292
2018-07-02T11:57:35.391Z,2292
2018-07-02T11:58:00.922Z,2300
2018-07-02T11:58:26.437Z,2300
2018-07-02T11:58:51.989Z,2304
2018-07-02T11:59:17.533Z,2296
2018-07-02T11:59:43.021Z,2304
2018-07-02T12:00:08.589Z,2308
2018-07-02T12:00:34.131Z,2316
2018-07-02T12:00:59.651Z,2316
2018-07-02T12:01:25.268Z,2320
2018-07-02T12:01:50.872Z,2328
2018-07-02T12:02:16.374Z,2324
2018-07-02T12:02:41.930Z,2328
2018-07-02T12:03:07.525Z,2336
2018-07-02T12:03:33.148Z,2340
2018-07-02T12:03:58.712Z,2336
2018-07-02T12:04:24.232Z,2344
2018-07-02T12:04:49.746Z,2348
2018-07-02T12:05:15.358Z,2356
2018-07-02T12:05:40.867Z,2364
2018-07-02T12:06:06.421Z,2368
2018-07-02T12:06:32.016Z,2368
2018-07-02T12:06:57.506Z,2368
2018-07-02T12:07:23.061Z,2368
2018-07-02T12:07:48.616Z,2368
2018-07-02T12:08:14.122Z,2368
2018-07-02T12:08:39.633Z,2368
2018-07-02T12:09:59.367Z,2376
2018-07-02T12:10:24.869Z,2384
2018-07-02T12:10:50.395Z,2384
2018-07-02T12:11:15.945Z,2388
2018-07-02T12:11:41.471Z,2388
2018-07-02T12:12:07.059Z,2396
2018-07-02T12:12:32.603Z,2392
2018-07-02T12:12:58.120Z,2380
2018-07-02T12:13:23.685Z,2384
2018-07-02T12:13:49.252Z,2376
2018-07-02T12:14:14.765Z,2384
2018-07-02T12:14:40.203Z,2388
2018-07-02T12:15:05.762Z,2388
2018-07-02T12:15:31.269Z,2392
2018-07-02T12:15:56.795Z,2392
2018-07-02T12:16:22.288Z,2396
2018-07-02T12:16:47.881Z,2392
2018-07-02T12:17:14.198Z,2388
2018-07-02T12:17:39.762Z,2388
2018-07-02T12:18:05.203Z,2388
2018-07-02T12:18:30.690Z,2396
2018-07-02T12:18:58.094Z,2396
2018-07-02T12:19:23.544Z,2396
2018-07-02T12:19:49.057Z,2396
2018-07-02T12:20:14.601Z,2396
2018-07-02T12:20:40.108Z,2396
2018-07-02T12:21:05.651Z,2400
2018-07-02T12:21:33.017Z,2404
2018-07-02T12:21:58.524Z,2408
2018-07-02T12:22:24.027Z,2412
2018-07-02T12:22:49.490Z,2420
2018-07-02T12:23:15.022Z,2420
2018-07-02T12:23:40.490Z,2420
2018-07-02T12:24:05.966Z,2428
2018-07-02T12:24:31.531Z,2436
2018-07-02T12:24:57.034Z,2436
2018-07-02T12:25:22.528Z,2436
2018-07-02T12:25:48.007Z,2432
2018-07-02T12:26:13.525Z,2432
2018-07-02T12:26:39.002Z,2432
2018-07-02T12:27:04.481Z,2436
2018-07-02T12:27:29.987Z,2432
2018-07-02T12:27:55.473Z,2432
2018-07-02T12:28:21.115Z,2428
2018-07-02T12:28:46.641Z,2420
2018-07-02T12:29:12.121Z,2420
2018-07-02T12:29:37.656Z,2416
2018-07-02T12:30:03.134Z,2416
2018-07-02T12:30:28.668Z,2416
2018-07-02T12:30:54.206Z,2412
2018-07-02T12:31:57.358Z,2412
2018-07-02T12:32:22.866Z,2412
2018-07-02T12:32:48.373Z,2412